Time;durP1;ratioP1;P1;durP2;ratioP2;P2;SDS_P1;SDS_P2;PMS_P1;PMS_P2;Temp;Humidity;BMP_temperature;BMP_pressure;BME280_temperature;BME280_humidity;BME280_pressure;Samples;Min_cycle;Max_cycle;Signal;HPM_P1;HPM_P2
2023/07/05 00:01:34;;;;;;;13.90;7.43;;;;;;;23.36;70.18;99186.44;4906947;29;20035;-90
2023/07/05 00:03:59;;;;;;;12.25;6.68;;;;;;;23.16;70.54;99190.31;4921756;29;20094;-89
2023/07/05 00:06:26;;;;;;;10.68;7.55;;;;;;;23.17;70.43;99186.41;4905988;29;20118;-89
2023/07/05 00:08:52;;;;;;;12.52;8.10;;;;;;;22.92;70.92;99166.56;4906345;29;20024;-89
2023/07/05 00:11:20;;;;;;;11.38;7.53;;;;;;;22.87;71.92;99183.31;4906170;29;20103;-89
2023/07/05 00:13:46;;;;;;;11.85;7.80;;;;;;;22.82;71.70;99173.41;4938165;29;20043;-90
2023/07/05 00:16:12;;;;;;;9.93;7.53;;;;;;;22.82;71.98;99173.41;4922910;29;20008;-90
2023/07/05 00:18:38;;;;;;;10.63;7.30;;;;;;;22.72;71.85;99168.44;4922648;29;20023;-90
2023/07/05 00:21:06;;;;;;;12.23;8.88;;;;;;;22.63;72.37;99165.88;4922480;29;20470;-90
2023/07/05 00:23:34;;;;;;;11.10;8.63;;;;;;;22.73;72.11;99170.84;4922010;29;20510;-90
2023/07/05 00:25:59;;;;;;;13.25;8.45;;;;;;;22.64;72.78;99170.22;4920598;29;20024;-90
2023/07/05 00:28:25;;;;;;;10.52;7.82;;;;;;;22.67;72.33;99172.25;4905382;29;20063;-90
2023/07/05 00:30:51;;;;;;;11.27;8.40;;;;;;;22.68;71.80;99160.13;4921174;29;20034;-90
2023/07/05 00:33:16;;;;;;;19.05;8.23;;;;;;;22.71;72.12;99162.16;4906493;29;20024;-90
2023/07/05 00:35:49;;;;;;;11.55;7.80;;;;;;;22.78;71.65;99156.03;4905335;29;20403;-90
2023/07/05 00:38:17;;;;;;;11.27;7.82;;;;;;;22.73;71.89;99148.88;4919424;29;20558;-90
2023/07/05 00:40:42;;;;;;;11.73;7.68;;;;;;;22.61;72.28;99135.25;4905629;29;20486;-90
2023/07/05 00:43:09;;;;;;;11.05;8.25;;;;;;;22.55;72.63;99140.19;4921443;29;20015;-91
2023/07/05 00:45:53;;;;;;;14.75;8.13;;;;;;;22.56;72.83;99146.50;4905164;29;20024;-90
2023/07/05 00:48:21;;;;;;;11.50;8.38;;;;;;;22.48;72.96;99151.00;4907398;29;20032;-90
2023/07/05 00:50:49;;;;;;;10.55;8.10;;;;;;;22.37;73.81;99148.00;4906036;29;20012;-90
2023/07/05 00:53:14;;;;;;;10.65;8.20;;;;;;;22.37;73.65;99156.22;4920515;29;20067;-90
2023/07/05 00:55:53;;;;;;;9.45;7.47;;;;;;;22.35;73.61;99152.22;4922593;29;20549;-91
2023/07/05 00:58:21;;;;;;;12.80;8.40;;;;;;;22.34;73.52;99147.91;4905793;29;20110;-90
2023/07/05 01:00:47;;;;;;;15.38;8.02;;;;;;;22.28;74.27;99154.78;4921625;29;20417;-90
2023/07/05 01:03:12;;;;;;;14.40;8.10;;;;;;;22.20;74.05;99146.38;4921473;29;20076;-90
2023/07/05 01:05:38;;;;;;;9.23;8.02;;;;;;;22.34;73.52;99147.91;4922195;29;20019;-90
2023/07/05 01:08:05;;;;;;;11.73;8.00;;;;;;;22.49;72.78;99160.03;4905702;29;20058;-90
2023/07/05 01:10:31;;;;;;;14.30;7.93;;;;;;;22.60;71.81;99167.38;4920973;29;20126;-90
2023/07/05 01:12:59;;;;;;;15.23;8.05;;;;;;;22.50;72.43;99178.09;4904931;29;20413;-90
2023/07/05 01:15:31;;;;;;;11.88;9.30;;;;;;;22.23;73.07;99168.75;4920707;29;20044;-90
2023/07/05 01:18:16;;;;;;;13.07;8.73;;;;;;;22.16;73.24;99167.41;4936525;29;20042;-90
2023/07/05 01:21:19;;;;;;;13.68;8.48;;;;;;;22.08;73.25;99165.63;4936265;29;20483;-90
2023/07/05 01:24:07;;;;;;;14.88;8.60;;;;;;;22.01;73.10;99162.69;4937062;29;20038;-89
2023/07/05 01:27:03;;;;;;;12.43;8.18;;;;;;;21.98;73.07;99160.66;4935896;29;20501;-90
2023/07/05 01:29:50;;;;;;;15.32;8.45;;;;;;;21.99;72.77;99167.72;4923125;29;20078;-90
2023/07/05 01:32:17;;;;;;;13.77;8.13;;;;;;;21.85;72.59;99150.88;4936584;29;20114;-91
2023/07/05 01:35:08;;;;;;;9.63;8.00;;;;;;;21.93;72.36;99164.41;4905346;29;20026;-90
2023/07/05 01:37:57;;;;;;;11.88;7.65;;;;;;;21.93;71.91;99144.44;4937226;29;20031;-90
2023/07/05 01:40:25;;;;;;;13.75;7.55;;;;;;;21.93;72.00;99142.47;4889155;29;20047;-90
2023/07/05 01:42:56;;;;;;;11.73;7.40;;;;;;;21.80;72.06;99130.78;4920579;29;20522;-90
2023/07/05 01:45:39;;;;;;;14.50;7.78;;;;;;;21.85;72.28;99140.72;4874466;29;20043;-90
2023/07/05 01:48:19;;;;;;;11.05;7.40;;;;;;;21.90;72.45;99145.16;4888249;29;20072;-90
2023/07/05 01:50:51;;;;;;;11.45;7.55;;;;;;;21.89;72.23;99144.34;4890400;29;20040;-90
2023/07/05 01:53:55;;;;;;;12.38;8.23;;;;;;;21.91;72.24;99150.25;4889002;29;20450;-90
2023/07/05 01:56:23;;;;;;;14.10;8.23;;;;;;;21.84;72.79;99146.56;4883410;29;20028;-90
2023/07/05 01:58:50;;;;;;;10.35;7.70;;;;;;;21.74;73.61;99142.34;4873253;29;20042;-89
2023/07/05 02:01:16;;;;;;;12.43;8.70;;;;;;;21.75;73.62;99138.47;4872830;29;20058;-89
2023/07/05 02:03:41;;;;;;;11.05;8.00;;;;;;;21.83;73.51;99150.41;4872795;29;20028;-90
2023/07/05 02:06:09;;;;;;;10.70;7.80;;;;;;;21.73;74.18;99147.03;4873432;29;20028;-90
2023/07/05 02:08:39;;;;;;;14.88;8.25;;;;;;;21.64;74.09;99143.63;4888937;29;20538;-89
2023/07/05 02:11:06;;;;;;;9.93;7.75;;;;;;;21.67;74.42;99148.44;4916228;29;20035;-89
2023/07/05 02:13:32;;;;;;;12.20;8.38;;;;;;;21.64;74.12;99145.59;4924691;29;20024;-89
2023/07/05 02:15:58;;;;;;;10.02;8.32;;;;;;;21.68;74.05;99160.19;4924163;29;20024;-89
2023/07/05 02:18:26;;;;;;;10.98;7.95;;;;;;;21.72;73.93;99161.88;4924004;29;20183;-89
2023/07/05 02:20:54;;;;;;;9.82;7.97;;;;;;;21.67;74.42;99162.13;4924115;29;20118;-90
2023/07/05 02:23:22;;;;;;;10.63;8.13;;;;;;;21.62;74.72;99167.06;4940346;29;20114;-89
2023/07/05 02:25:49;;;;;;;11.38;7.93;;;;;;;21.59;75.07;99157.59;4925223;29;20027;-90
2023/07/05 02:28:15;;;;;;;10.50;7.28;;;;;;;21.48;75.27;99154.56;4909234;29;20403;-89
2023/07/05 02:30:41;;;;;;;8.80;7.53;;;;;;;21.36;75.38;99151.81;4924355;29;20036;-89
2023/07/05 02:33:07;;;;;;;9.85;7.32;;;;;;;21.49;74.66;99166.31;4909657;29;20039;-89
2023/07/05 02:35:38;;;;;;;13.90;7.32;;;;;;;21.35;74.87;99163.91;4939973;29;20090;-89
2023/07/05 02:38:04;;;;;;;11.80;8.30;;;;;;;21.37;75.16;99161.59;4909408;29;20028;-89
2023/07/05 02:40:31;;;;;;;13.23;7.75;;;;;;;21.40;75.13;99178.16;4923610;29;20039;-88
2023/07/05 02:42:59;;;;;;;11.35;8.13;;;;;;;21.38;75.56;99174.97;4924050;29;20043;-89
2023/07/05 02:45:29;;;;;;;10.45;8.15;;;;;;;21.42;74.71;99175.13;4924213;29;20099;-90
2023/07/05 02:47:57;;;;;;;9.48;7.80;;;;;;;21.55;74.71;99179.41;4938798;29;20098;-88
2023/07/05 02:50:23;;;;;;;12.23;7.70;;;;;;;21.49;74.82;99185.47;4923277;29;20169;-89
2023/07/05 02:52:49;;;;;;;13.98;7.70;;;;;;;21.31;75.21;99179.41;4939726;29;20035;-89
2023/07/05 02:55:16;;;;;;;12.15;7.97;;;;;;;21.30;75.06;99191.53;4924356;29;20020;-89
2023/07/05 02:57:41;;;;;;;9.05;7.15;;;;;;;21.29;75.38;99187.19;4939986;29;20036;-90
2023/07/05 03:00:10;;;;;;;12.18;7.72;;;;;;;21.33;74.97;99182.63;4907947;29;20042;-90
2023/07/05 03:02:36;;;;;;;12.23;7.63;;;;;;;21.29;74.88;99182.53;4938695;29;20071;-89
2023/07/05 03:05:09;;;;;;;8.98;7.15;;;;;;;21.23;74.99;99170.22;4939767;29;20030;-90
2023/07/05 03:07:34;;;;;;;10.32;7.40;;;;;;;21.12;75.34;99175.34;4907879;29;20035;-90
2023/07/05 03:10:00;;;;;;;13.02;7.72;;;;;;;21.12;75.00;99174.53;4922669;29;20027;-90
2023/07/05 03:12:26;;;;;;;15.18;7.80;;;;;;;21.08;75.36;99168.94;4907688;29;20507;-90
2023/07/05 03:14:52;;;;;;;12.15;8.05;;;;;;;21.09;75.28;99188.94;4939018;29;20054;-89
2023/07/05 03:17:20;;;;;;;12.32;7.57;;;;;;;21.13;75.24;99192.59;4939929;29;20059;-89
2023/07/05 03:19:46;;;;;;;10.15;8.20;;;;;;;21.08;76.11;99192.81;4923657;29;20027;-92
2023/07/05 03:22:13;;;;;;;12.93;7.60;;;;;;;21.15;75.23;99190.31;4907738;29;20087;-92
2023/07/05 03:24:39;;;;;;;12.07;7.65;;;;;;;21.22;75.02;99189.72;4924011;29;20047;-93
2023/07/05 03:27:06;;;;;;;10.52;7.68;;;;;;;21.24;75.66;99184.69;4940733;29;20020;-94
2023/07/05 03:29:31;;;;;;;11.43;7.03;;;;;;;21.14;75.61;99186.75;4908930;29;20038;-94
2023/07/05 03:31:59;;;;;;;11.02;7.78;;;;;;;21.11;75.05;99186.66;4908496;29;20498;-92
2023/07/05 03:34:24;;;;;;;11.85;7.97;;;;;;;21.26;74.94;99182.41;4923715;29;20498;-92
2023/07/05 03:36:50;;;;;;;12.38;8.13;;;;;;;21.31;74.38;99174.75;4907672;29;20031;-92
2023/07/05 03:39:16;;;;;;;9.57;7.47;;;;;;;21.23;74.36;99183.09;4909011;29;20059;-92
2023/07/05 03:41:41;;;;;;;15.10;7.40;;;;;;;21.16;74.65;99180.94;4923370;29;20089;-92
2023/07/05 03:44:07;;;;;;;9.93;7.03;;;;;;;21.19;74.81;99175.56;4908462;29;20040;-92
2023/07/05 03:46:33;;;;;;;12.27;7.57;;;;;;;21.17;74.40;99191.56;4906898;29;20046;-91
2023/07/05 03:49:00;;;;;;;12.90;7.47;;;;;;;21.26;74.40;99190.63;4939745;29;20039;-92
2023/07/05 03:51:26;;;;;;;9.73;7.07;;;;;;;21.24;74.91;99196.44;4923909;29;20031;-93
2023/07/05 03:53:55;;;;;;;12.30;8.30;;;;;;;21.43;73.82;99198.59;4907367;29;20028;-93
2023/07/05 03:56:23;;;;;;;15.20;7.80;;;;;;;21.39;72.87;99170.28;4938774;29;20019;-91
2023/07/05 03:58:51;;;;;;;14.07;7.63;;;;;;;21.43;73.93;99184.13;4940400;29;20036;-91
2023/07/05 04:01:21;;;;;;;11.05;7.88;;;;;;;21.47;74.30;99177.59;4923387;29;20035;-91
2023/07/05 04:04:10;;;;;;;11.18;8.50;;;;;;;21.61;72.53;99181.91;4922593;29;20541;-94
2023/07/05 04:06:37;;;;;;;14.40;8.20;;;;;;;21.64;72.20;99184.75;4888340;29;20032;-91
2023/07/05 04:09:03;;;;;;;10.15;7.25;;;;;;;21.63;72.16;99190.59;4914334;29;20044;-92
2023/07/05 04:11:29;;;;;;;17.65;7.30;;;;;;;21.78;71.57;99187.91;4867865;29;20055;-92
2023/07/05 04:13:56;;;;;;;13.95;7.20;;;;;;;21.82;72.58;99188.00;4889661;29;20044;-91
2023/07/05 04:16:24;;;;;;;10.77;7.15;;;;;;;21.94;71.51;99193.44;4904890;29;20044;-92
2023/07/05 04:18:53;;;;;;;10.80;7.50;;;;;;;21.97;71.10;99175.50;4920265;29;20112;-91
2023/07/05 04:21:19;;;;;;;10.02;7.50;;;;;;;21.90;71.35;99175.31;4872926;29;20039;-90
2023/07/05 04:23:46;;;;;;;13.85;10.10;;;;;;;22.08;69.88;99157.41;4905006;29;20411;-91
2023/07/05 04:26:14;;;;;;;15.73;11.38;;;;;;;22.36;69.60;99184.81;4904862;29;20033;-90
2023/07/05 04:28:40;;;;;;;15.32;10.98;;;;;;;22.38;69.02;99165.25;4907085;29;20028;-91
2023/07/05 04:31:15;;;;;;;16.10;10.82;;;;;;;22.54;69.01;99173.50;4874010;29;20036;-91
2023/07/05 04:33:40;;;;;;;15.57;8.00;;;;;;;22.62;67.55;99175.28;4889342;29;20012;-92
2023/07/05 04:36:07;;;;;;;11.70;7.70;;;;;;;22.66;67.27;99187.16;4873230;29;20040;-92
2023/07/05 04:38:33;;;;;;;13.63;7.88;;;;;;;22.70;68.07;99178.97;4907965;29;20091;-92
2023/07/05 04:40:58;;;;;;;15.40;7.55;;;;;;;22.62;68.57;99177.22;4913226;29;20055;-91
2023/07/05 04:43:26;;;;;;;18.08;7.80;;;;;;;22.71;67.98;99172.34;4906613;29;20038;-92
2023/07/05 04:45:52;;;;;;;12.23;8.02;;;;;;;22.77;68.01;99174.47;4907615;29;20395;-91
2023/07/05 04:48:18;;;;;;;11.32;6.82;;;;;;;22.87;67.85;99177.81;4899629;29;20019;-89
2023/07/05 04:50:45;;;;;;;13.77;7.00;;;;;;;23.07;67.10;99178.72;4907546;29;20032;-92
2023/07/05 04:53:10;;;;;;;13.82;7.40;;;;;;;22.99;67.65;99166.72;4938756;29;20028;-92
2023/07/05 04:56:05;;;;;;;9.82;6.95;;;;;;;23.00;67.36;99177.38;4918066;29;20102;-91
2023/07/05 04:58:30;;;;;;;9.48;6.75;;;;;;;22.97;67.72;99169.84;4903430;29;20080;-92
2023/07/05 05:01:04;;;;;;;12.52;7.53;;;;;;;23.04;67.66;99176.69;4899963;29;20035;-93
2023/07/05 05:03:29;;;;;;;11.07;7.18;;;;;;;23.05;67.69;99173.56;4892499;29;20122;-93
2023/07/05 05:05:55;;;;;;;13.60;6.82;;;;;;;23.07;67.33;99174.00;4891591;29;20418;-92
2023/07/05 05:08:24;;;;;;;12.32;7.30;;;;;;;23.06;67.61;99166.94;4894885;29;20090;-92
2023/07/05 05:10:54;;;;;;;14.00;7.07;;;;;;;23.17;67.93;99181.69;4893719;29;20040;-90
2023/07/05 05:13:22;;;;;;;19.60;7.70;;;;;;;23.24;67.29;99180.28;4916859;29;20027;-93
2023/07/05 05:15:55;;;;;;;10.90;8.35;;;;;;;23.46;66.62;99182.34;4935624;29;20023;-96
2023/07/05 05:18:43;;;;;;;12.73;8.93;;;;;;;23.47;65.83;99170.22;4890978;29;20039;-90
2023/07/05 05:21:08;;;;;;;13.65;8.40;;;;;;;23.48;65.83;99166.28;4917154;29;20039;-94
2023/07/05 05:23:35;;;;;;;16.75;9.95;;;;;;;23.63;64.67;99181.13;4919836;29;20061;-91
2023/07/05 05:26:01;;;;;;;13.48;8.70;;;;;;;23.69;63.95;99171.44;4933269;29;20019;-90
2023/07/05 05:28:38;;;;;;;18.02;9.80;;;;;;;23.65;64.31;99169.78;4918119;29;20023;-92
2023/07/05 05:31:07;;;;;;;16.25;9.50;;;;;;;23.69;64.09;99162.41;4914591;29;20080;-92
2023/07/05 05:33:36;;;;;;;11.55;7.97;;;;;;;23.74;65.04;99160.16;4906839;29;20039;-93
2023/07/05 05:36:02;;;;;;;16.25;9.93;;;;;;;23.83;64.85;99153.69;4909170;29;21138;-92
2023/07/05 05:38:28;;;;;;;42.38;11.05;;;;;;;23.87;64.32;99162.78;4923927;29;20150;-91
2023/07/05 05:40:59;;;;;;;14.38;8.80;;;;;;;24.11;63.91;99175.41;4913396;29;20027;-92
2023/07/05 05:43:25;;;;;;;14.70;8.40;;;;;;;23.97;63.03;99143.75;4918222;29;20070;-92
2023/07/05 05:45:51;;;;;;;13.18;8.25;;;;;;;24.10;63.41;99146.34;4905699;29;20454;-95
2023/07/05 05:48:17;;;;;;;14.63;9.27;;;;;;;24.14;63.20;99136.19;4904647;29;20050;-93
2023/07/05 05:50:48;;;;;;;16.25;8.43;;;;;;;24.55;62.66;99172.28;4911140;29;20042;-95
2023/07/05 05:53:14;;;;;;;15.02;7.78;;;;;;;24.55;62.21;99162.09;4907433;29;20084;-94
2023/07/05 05:55:43;;;;;;;26.48;9.63;;;;;;;24.68;61.27;99161.91;4934588;29;20573;-92
2023/07/05 05:58:24;;;;;;;12.73;8.68;;;;;;;24.64;61.17;99161.06;5039722;23;20079;-95
2023/07/05 06:00:51;;;;;;;12.88;7.90;;;;;;;24.81;61.78;99174.31;4936874;29;20027;-95
2023/07/05 06:03:21;;;;;;;16.80;8.50;;;;;;;24.90;60.92;99160.28;4942079;29;20035;-95
2023/07/05 06:05:58;;;;;;;14.95;8.25;;;;;;;24.92;60.41;99150.50;4925025;29;20048;-96
2023/07/05 06:08:48;;;;;;;10.73;8.15;;;;;;;24.92;60.13;99149.69;4936106;29;20063;-96
2023/07/05 06:11:19;;;;;;;14.75;9.15;;;;;;;25.12;59.87;99164.94;4928685;29;20063;-96
2023/07/05 06:14:27;;;;;;;;;;;;;;;;;;;;;
2023/07/05 06:17:00;;;;;;;16.08;8.32;;;;;;;25.25;59.85;99160.03;4913916;29;20096;-96
2023/07/05 06:20:03;;;;;;;;;;;;;;;;;;;;;
2023/07/05 06:29:21;;;;;;;11.35;7.15;;;;;;;25.79;59.63;99144.19;4883121;29;20100;-96
2023/07/05 06:31:48;;;;;;;11.50;7.72;;;;;;;26.01;58.42;99170.09;4843636;29;20037;-96
2023/07/05 06:34:18;;;;;;;11.25;9.32;;;;;;;26.08;57.90;99166.59;4844559;29;20049;-95
2023/07/05 06:39:27;;;;;;;14.07;8.10;;;;;;;25.91;58.40;99141.19;4972563;28;20051;-96
2023/07/05 06:42:09;;;;;;;9.93;7.38;;;;;;;25.96;58.76;99145.56;4944646;29;20553;-95
2023/07/05 06:47:10;;;;;;;14.55;8.65;;;;;;;26.11;58.60;99130.78;5768047;23;20083;-95
2023/07/05 06:49:42;;;;;;;18.75;8.23;;;;;;;26.18;58.47;99132.81;4872513;29;20151;-95
2023/07/05 06:52:37;;;;;;;9.68;7.10;;;;;;;26.28;57.96;99148.66;5218643;23;20052;-94
2023/07/05 06:55:04;;;;;;;11.98;8.75;;;;;;;26.56;57.56;99147.34;4897823;29;20037;-95
2023/07/05 06:57:30;;;;;;;12.13;6.93;;;;;;;26.65;56.51;99147.84;4903808;29;20116;-94
2023/07/05 06:59:56;;;;;;;22.52;15.73;;;;;;;26.90;56.84;99156.31;4912326;29;20226;-95
2023/07/05 07:02:21;;;;;;;9.98;7.15;;;;;;;26.85;56.19;99142.84;4877861;29;20054;-94
2023/07/05 07:04:47;;;;;;;9.60;7.30;;;;;;;27.03;56.38;99159.56;4875569;29;20067;-95
2023/07/05 07:07:14;;;;;;;10.45;7.18;;;;;;;27.26;56.07;99169.59;4879316;29;20036;-95
2023/07/05 07:09:40;;;;;;;10.43;7.45;;;;;;;27.08;56.49;99139.06;4878965;29;20623;-95
2023/07/05 07:12:09;;;;;;;17.27;7.40;;;;;;;27.25;57.28;99154.19;4895430;29;20039;-93
2023/07/05 07:14:36;;;;;;;8.65;6.78;;;;;;;27.49;55.60;99144.44;4883749;29;20036;-88
2023/07/05 07:17:30;;;;;;;14.40;7.35;;;;;;;27.57;55.10;99140.53;4861903;29;20152;-89
2023/07/05 07:19:55;;;;;;;9.32;7.50;;;;;;;27.82;54.50;99141.41;4835677;29;20148;-88
2023/07/05 07:22:26;;;;;;;8.68;6.60;;;;;;;27.93;54.68;99126.84;4816432;29;20129;-90
2023/07/05 07:24:57;;;;;;;9.25;6.68;;;;;;;28.14;54.22;99137.16;4854216;29;20415;-89
2023/07/05 07:27:35;;;;;;;10.93;6.57;;;;;;;28.13;53.35;99136.38;4905814;29;20031;-93
2023/07/05 07:30:07;;;;;;;7.95;6.05;;;;;;;28.23;53.73;99145.88;4926604;29;20063;-96
2023/07/05 07:33:14;;;;;;;8.20;6.22;;;;;;;28.13;53.01;99143.88;4922288;29;20022;-96
2023/07/05 07:35:44;;;;;;;10.98;6.72;;;;;;;28.14;53.36;99134.38;4955502;29;20035;-95
2023/07/05 07:38:35;;;;;;;9.03;6.63;;;;;;;28.36;53.05;99168.44;4936523;29;20054;-95
2023/07/05 07:41:01;;;;;;;7.95;6.70;;;;;;;28.45;52.54;99165.28;4936329;29;20023;-94
2023/07/05 07:43:50;;;;;;;9.13;6.93;;;;;;;28.29;53.52;99147.09;4920687;29;20019;-96
2023/07/05 07:47:00;;;;;;;;;;;;;;;;;;;;;
2023/07/05 07:49:26;;;;;;;8.88;6.68;;;;;;;28.25;53.78;99142.72;4891436;29;20069;-96
2023/07/05 07:51:59;;;;;;;13.70;6.65;;;;;;;28.24;53.69;99127.28;4900258;29;20050;-96
2023/07/05 07:54:47;;;;;;;9.15;6.82;;;;;;;28.30;53.40;99154.19;4943541;29;20031;-96
2023/07/05 07:57:15;;;;;;;12.25;7.43;;;;;;;28.29;53.78;99130.47;4955334;23;20100;-96
2023/07/05 08:01:29;;;;;;;10.77;7.97;;;;;;;28.51;53.19;99166.50;4918431;29;20052;-96
2023/07/05 08:03:24;;;;;;;12.82;7.22;;;;;;;28.48;53.70;99153.44;4914829;29;20147;-96
2023/07/05 08:05:51;;;;;;;13.85;7.47;;;;;;;28.62;53.32;99159.00;4994165;23;20053;-89
2023/07/05 08:08:16;;;;;;;9.15;6.97;;;;;;;28.71;52.92;99155.84;4858046;29;20112;-89
2023/07/05 08:10:45;;;;;;;9.45;6.80;;;;;;;28.71;52.08;99151.06;4864430;29;20028;-90
2023/07/05 08:13:44;;;;;;;7.85;7.03;;;;;;;28.70;51.53;99151.47;4880748;29;20028;-91
2023/07/05 08:16:09;;;;;;;8.45;6.40;;;;;;;28.83;50.64;99165.72;4859806;29;20069;-94
2023/07/05 08:18:35;;;;;;;7.50;6.70;;;;;;;28.88;50.72;99163.34;4835095;29;20041;-96
2023/07/05 08:21:03;;;;;;;10.32;6.40;;;;;;;28.87;50.97;99160.97;4842122;29;20036;-94
2023/07/05 08:23:38;;;;;;;9.15;7.15;;;;;;;28.92;51.06;99143.94;4859464;29;20091;-96
2023/07/05 08:26:07;;;;;;;10.30;7.85;;;;;;;29.00;51.12;99164.91;4856015;29;20141;-94
2023/07/05 08:28:47;;;;;;;8.13;6.80;;;;;;;28.99;50.59;99149.44;4842137;29;20037;-93
2023/07/05 08:31:15;;;;;;;8.07;6.90;;;;;;;29.17;50.41;99169.66;4841544;29;20226;-95
2023/07/05 08:33:52;;;;;;;12.65;7.85;;;;;;;29.23;49.68;99163.72;4839062;29;20081;-91
2023/07/05 08:36:19;;;;;;;8.45;6.50;;;;;;;29.41;49.10;99167.22;4838907;29;20041;-91
2023/07/05 08:38:56;;;;;;;7.85;5.90;;;;;;;29.47;48.11;99162.84;4836239;29;20047;-92
2023/07/05 08:41:44;;;;;;;31.98;8.65;;;;;;;29.53;46.76;99150.16;4842494;29;20037;-94
2023/07/05 08:44:23;;;;;;;15.05;6.65;;;;;;;29.61;46.54;99148.13;4858541;29;20051;-93
2023/07/05 08:47:00;;;;;;;9.00;5.80;;;;;;;29.75;46.11;99161.97;4854566;29;20484;-94
2023/07/05 08:49:46;;;;;;;7.47;6.00;;;;;;;29.85;46.45;99171.44;4874665;29;20040;-92
2023/07/05 08:52:36;;;;;;;6.47;5.47;;;;;;;29.81;44.87;99154.78;4875355;29;20039;-92
2023/07/05 08:55:43;;;;;;;6.47;5.35;;;;;;;29.70;44.92;99139.38;4889221;29;20032;-94
2023/07/05 08:58:14;;;;;;;7.32;5.35;;;;;;;29.83;43.54;99154.41;4851522;29;20058;-93
2023/07/05 09:03:44;;;;;;;7.97;5.07;;;;;;;29.94;41.06;99162.66;4852462;29;20046;-93
2023/07/05 09:06:27;;;;;;;7.95;5.00;;;;;;;30.12;42.33;99174.47;4841539;29;20050;-91
2023/07/05 09:08:58;;;;;;;10.75;5.70;;;;;;;29.90;41.07;99153.56;4884463;29;20306;-95
2023/07/05 09:11:27;;;;;;;13.20;8.25;;;;;;;30.15;43.13;99175.63;4889920;29;20029;-95
2023/07/05 09:14:02;;;;;;;8.82;5.22;;;;;;;30.11;43.07;99147.09;4893280;29;20204;-95
2023/07/05 09:16:43;;;;;;;6.65;4.90;;;;;;;30.10;43.77;99162.19;4863766;29;20092;-94
2023/07/05 09:19:20;;;;;;;7.85;5.38;;;;;;;29.71;42.96;99141.75;4887248;29;20057;-95
2023/07/05 09:21:48;;;;;;;10.13;5.00;;;;;;;29.89;40.67;99136.13;4871121;29;20034;-94
2023/07/05 09:24:25;;;;;;;8.88;4.57;;;;;;;30.03;40.51;99138.03;4874538;29;20040;-93
2023/07/05 09:27:00;;;;;;;8.55;4.85;;;;;;;30.28;40.58;99157.31;4873176;29;20101;-93
2023/07/05 09:30:04;;;;;;;14.43;5.85;;;;;;;30.19;40.39;99163.31;4888082;29;20066;-92
2023/07/05 09:32:42;;;;;;;6.05;4.32;;;;;;;30.20;40.08;99139.91;4892920;29;20017;-94
2023/07/05 09:35:23;;;;;;;5.47;4.68;;;;;;;30.13;40.78;99123.31;4868818;29;20131;-91
2023/07/05 09:37:56;;;;;;;8.50;4.82;;;;;;;30.18;40.75;99145.06;4883751;29;20033;-95
2023/07/05 09:40:27;;;;;;;6.80;5.05;;;;;;;30.30;41.37;99148.59;4861628;29;20077;-93
2023/07/05 09:43:18;;;;;;;8.20;4.75;;;;;;;30.16;40.08;99138.34;4872798;29;20072;-93
2023/07/05 09:45:51;;;;;;;6.88;4.80;;;;;;;30.31;40.10;99144.63;4883633;29;20047;-94
2023/07/05 09:48:35;;;;;;;6.05;5.13;;;;;;;30.28;41.43;99123.97;4864715;29;20437;-96
2023/07/05 09:51:09;;;;;;;7.57;4.57;;;;;;;30.50;40.64;99143.28;4897458;29;20036;-92
2023/07/05 09:54:33;;;;;;;7.68;5.20;;;;;;;30.34;40.89;99149.34;4877393;29;20166;-92
2023/07/05 09:57:54;;;;;;;5.43;4.30;;;;;;;30.29;40.80;99111.69;4815699;29;20046;-91
2023/07/05 10:01:25;;;;;;;27.92;5.15;;;;;;;30.56;41.70;99142.44;4793464;29;20125;-95
2023/07/05 10:04:49;;;;;;;;;;;;;;;;;;;;;
2023/07/05 10:07:25;;;;;;;13.68;4.40;;;;;;;30.71;40.69;99145.09;4888246;29;19970;-91
2023/07/05 10:09:54;;;;;;;6.20;4.50;;;;;;;30.71;40.39;99139.53;4867217;29;20036;-90
2023/07/05 10:12:21;;;;;;;16.05;4.88;;;;;;;30.51;41.48;99106.75;4850421;29;20046;-88
2023/07/05 10:14:49;;;;;;;20.95;5.45;;;;;;;30.67;40.79;99106.19;4845470;29;20077;-92
2023/07/05 10:17:18;;;;;;;9.63;4.60;;;;;;;30.76;40.24;99114.88;4857854;29;20048;-92
2023/07/05 10:19:51;;;;;;;5.88;4.60;;;;;;;30.67;40.57;99091.53;4851972;29;20056;-91
2023/07/05 10:22:34;;;;;;;5.32;4.18;;;;;;;30.87;40.88;99106.44;4865709;29;20036;-91
2023/07/05 10:25:17;;;;;;;9.98;4.90;;;;;;;30.78;41.60;99089.44;4872206;29;20036;-91
2023/07/05 10:27:44;;;;;;;14.20;5.00;;;;;;;30.82;41.58;99096.53;4867025;29;20101;-91
2023/07/05 10:30:13;;;;;;;7.13;5.00;;;;;;;31.04;40.87;99107.47;4858103;29;20043;-91
2023/07/05 10:33:46;;;;;;;;;;;;;;;;;;;;;
2023/07/05 10:36:15;;;;;;;6.80;4.22;;;;;;;31.06;40.42;99093.16;4898979;29;20132;-91
2023/07/05 10:38:48;;;;;;;12.52;5.65;;;;;;;31.09;40.97;99104.25;4876546;29;20033;-92
2023/07/05 10:41:19;;;;;;;6.65;4.90;;;;;;;31.26;41.00;99104.44;4868407;29;20048;-90
2023/07/05 10:44:00;;;;;;;6.78;4.90;;;;;;;31.50;40.84;99106.16;4889339;29;20040;-92
2023/07/05 10:46:26;;;;;;;6.47;4.97;;;;;;;31.40;41.31;99082.03;4891333;29;20033;-91
2023/07/05 10:49:02;;;;;;;5.72;4.85;;;;;;;31.36;40.43;99086.84;4884482;29;20096;-93
2023/07/05 10:51:39;;;;;;;7.85;4.57;;;;;;;31.34;40.08;99075.34;4909472;29;20044;-96
2023/07/05 10:54:23;;;;;;;6.45;4.55;;;;;;;31.56;39.81;99084.22;4905265;29;20491;-92
2023/07/05 10:56:49;;;;;;;11.85;7.20;;;;;;;31.52;39.25;99087.03;4872978;29;20032;-93
2023/07/05 10:59:33;;;;;;;5.40;4.25;;;;;;;31.76;38.41;99093.47;4872978;29;20035;-93
2023/07/05 11:02:01;;;;;;;6.32;4.05;;;;;;;31.87;39.45;99101.66;4899094;29;20080;-92
2023/07/05 11:04:31;;;;;;;6.15;4.28;;;;;;;31.94;38.98;99089.66;4871416;29;20029;-92
2023/07/05 11:07:06;;;;;;;5.93;3.97;;;;;;;32.05;38.68;99079.16;4874227;29;20056;-95
2023/07/05 11:09:35;;;;;;;6.78;4.45;;;;;;;32.13;38.52;99072.28;4878440;29;20060;-95
2023/07/05 11:12:03;;;;;;;6.20;4.07;;;;;;;32.07;38.13;99067.63;4877816;29;20029;-94
2023/07/05 11:14:31;;;;;;;45.22;5.57;;;;;;;31.91;39.28;99060.63;4871568;29;20033;-93
2023/07/05 11:16:57;;;;;;;19.67;5.15;;;;;;;32.03;39.06;99061.31;4892008;29;20029;-94
2023/07/05 11:19:35;;;;;;;11.00;4.60;;;;;;;32.08;38.86;99063.59;4863255;29;20040;-92
2023/07/05 11:22:01;;;;;;;27.75;5.18;;;;;;;32.30;38.03;99072.41;4890521;29;20496;-95
2023/07/05 11:24:38;;;;;;;5.95;4.20;;;;;;;32.43;37.92;99074.16;4872496;29;20037;-93
2023/07/05 11:27:23;;;;;;;6.45;4.18;;;;;;;32.43;37.01;99070.59;4905969;29;20031;-92
2023/07/05 11:29:54;;;;;;;22.30;5.40;;;;;;;32.36;37.04;99057.56;4886752;29;20028;-95
2023/07/05 11:32:27;;;;;;;13.00;4.40;;;;;;;32.43;36.50;99046.28;4867130;29;20040;-94
2023/07/05 11:34:54;;;;;;;7.40;4.60;;;;;;;32.55;36.27;99041.34;4873031;29;20037;-93
2023/07/05 11:37:28;;;;;;;6.38;4.30;;;;;;;32.49;35.95;99054.94;4872234;29;20028;-94
2023/07/05 11:40:45;;;;;;;7.18;3.75;;;;;;;32.51;35.18;99055.31;4886521;29;20036;-96
2023/07/05 11:43:39;;;;;;;24.45;4.60;;;;;;;32.31;35.42;99027.41;4872080;29;20105;-94
2023/07/05 11:50:01;;;;;;;9.98;3.90;;;;;;;32.65;34.46;99022.84;4849561;29;20125;-96
2023/07/05 11:52:29;;;;;;;32.90;4.28;;;;;;;32.26;33.99;99015.97;4861856;29;20696;-93
2023/07/05 11:55:25;;;;;;;8.95;4.28;;;;;;;32.54;32.39;99036.97;4870894;29;20128;-93
2023/07/05 11:58:08;;;;;;;4.15;3.38;;;;;;;32.56;33.26;99040.94;4885330;29;20073;-93
2023/07/05 12:01:30;;;;;;;;;;;;;;;;;;;;;
2023/07/05 12:04:13;;;;;;;5.25;3.53;;;;;;;32.45;32.33;99039.50;4873774;29;20045;-94
2023/07/05 12:06:51;;;;;;;5.40;3.55;;;;;;;32.33;31.88;99027.78;4885866;29;20057;-96
2023/07/05 12:09:32;;;;;;;7.10;3.60;;;;;;;32.29;31.97;99021.47;4892722;29;20037;-94
2023/07/05 12:16:15;;;;;;;7.80;3.17;;;;;;;32.56;31.42;99051.28;4855117;29;20036;-95
2023/07/05 12:19:30;;;;;;;4.00;3.30;;;;;;;32.50;30.44;99019.50;4862600;29;20085;-95
2023/07/05 12:23:07;;;;;;;;;;;;;;;;;;;;;
2023/07/05 12:25:33;;;;;;;5.28;3.35;;;;;;;32.69;30.60;99026.38;4809395;29;20169;-92
2023/07/05 12:28:02;;;;;;;6.75;3.30;;;;;;;32.75;30.88;99019.84;4872629;29;20525;-93
2023/07/05 12:30:31;;;;;;;5.95;4.40;;;;;;;32.61;31.25;99018.13;4862361;29;20078;-94
2023/07/05 12:32:57;;;;;;;5.57;3.80;;;;;;;32.62;30.86;99010.53;4851805;29;20143;-93